TAF Text Data
IDs:
Format:
Raw Decoded Include METAR

Data at: 0350 UTC 23 Oct 2018

KVLD 222322Z 2300/2324 03004KT P6SM BKN100